sensor_id;sensor_type;location;lat;lon;timestamp;temperature;humidity
7784;DHT22;19359;51.402;6.778;2023-10-08T00:06:16;18.40;1.00
7784;DHT22;19359;51.402;6.778;2023-10-08T00:08:45;18.40;1.00
7784;DHT22;19359;51.402;6.778;2023-10-08T00:11:12;18.40;1.00
7784;DHT22;19359;51.402;6.778;2023-10-08T00:13:42;18.30;1.00
7784;DHT22;19359;51.402;6.778;2023-10-08T00:16:10;18.40;1.00
7784;DHT22;19359;51.402;6.778;2023-10-08T00:21:08;18.10;1.00
7784;DHT22;19359;51.402;6.778;2023-10-08T00:23:45;18.40;1.00
7784;DHT22;19359;51.402;6.778;2023-10-08T00:36:11;18.00;1.00
7784;DHT22;19359;51.402;6.778;2023-10-08T00:38:44;18.00;1.00
7784;DHT22;19359;51.402;6.778;2023-10-08T00:41:13;18.00;1.00
7784;DHT22;19359;51.402;6.778;2023-10-08T00:46:11;18.00;1.00
7784;DHT22;19359;51.402;6.778;2023-10-08T00:51:15;18.10;1.00
7784;DHT22;19359;51.402;6.778;2023-10-08T00:53:54;17.90;1.00
7784;DHT22;19359;51.402;6.778;2023-10-08T00:56:24;17.90;1.00
7784;DHT22;19359;51.402;6.778;2023-10-08T00:58:51;18.00;1.00
7784;DHT22;19359;51.402;6.778;2023-10-08T01:01:19;18.10;1.00
7784;DHT22;19359;51.402;6.778;2023-10-08T01:03:51;17.90;1.00
7784;DHT22;19359;51.402;6.778;2023-10-08T01:06:20;18.00;1.00
7784;DHT22;19359;51.402;6.778;2023-10-08T01:11:20;17.90;1.00
7784;DHT22;19359;51.402;6.778;2023-10-08T01:13:57;17.70;1.00
7784;DHT22;19359;51.402;6.778;2023-10-08T01:16:24;17.60;1.00
7784;DHT22;19359;51.402;6.778;2023-10-08T01:18:53;17.70;1.00
7784;DHT22;19359;51.402;6.778;2023-10-08T01:21:20;17.80;1.00
7784;DHT22;19359;51.402;6.778;2023-10-08T01:26:32;17.60;1.00
7784;DHT22;19359;51.402;6.778;2023-10-08T01:28:59;17.80;1.00
7784;DHT22;19359;51.402;6.778;2023-10-08T01:31:32;17.50;1.00
7784;DHT22;19359;51.402;6.778;2023-10-08T01:36:30;17.40;1.00
7784;DHT22;19359;51.402;6.778;2023-10-08T01:43:56;17.40;1.00
7784;DHT22;19359;51.402;6.778;2023-10-08T01:46:24;17.30;1.00
7784;DHT22;19359;51.402;6.778;2023-10-08T01:51:25;17.50;1.00
7784;DHT22;19359;51.402;6.778;2023-10-08T01:54:02;17.40;1.00
7784;DHT22;19359;51.402;6.778;2023-10-08T01:56:37;17.40;1.00
7784;DHT22;19359;51.402;6.778;2023-10-08T02:04:02;17.20;1.00
7784;DHT22;19359;51.402;6.778;2023-10-08T02:11:24;17.20;1.00
7784;DHT22;19359;51.402;6.778;2023-10-08T02:16:21;17.40;1.00
7784;DHT22;19359;51.402;6.778;2023-10-08T02:18:48;17.40;1.00
7784;DHT22;19359;51.402;6.778;2023-10-08T02:21:16;17.10;1.00
7784;DHT22;19359;51.402;6.778;2023-10-08T02:26:10;17.20;1.00
7784;DHT22;19359;51.402;6.778;2023-10-08T02:28:40;17.00;1.00
7784;DHT22;19359;51.402;6.778;2023-10-08T02:31:08;17.20;1.00
7784;DHT22;19359;51.402;6.778;2023-10-08T02:36:03;17.10;1.00
7784;DHT22;19359;51.402;6.778;2023-10-08T02:43:32;16.90;1.00
7784;DHT22;19359;51.402;6.778;2023-10-08T02:46:02;17.10;1.00
7784;DHT22;19359;51.402;6.778;2023-10-08T02:48:34;16.90;1.00
7784;DHT22;19359;51.402;6.778;2023-10-08T02:51:01;17.10;1.00
7784;DHT22;19359;51.402;6.778;2023-10-08T02:56:07;16.70;1.00
7784;DHT22;19359;51.402;6.778;2023-10-08T02:58:38;17.00;1.00
7784;DHT22;19359;51.402;6.778;2023-10-08T03:01:06;17.00;1.00
7784;DHT22;19359;51.402;6.778;2023-10-08T03:06:06;16.80;1.00
7784;DHT22;19359;51.402;6.778;2023-10-08T03:11:08;17.00;1.00
7784;DHT22;19359;51.402;6.778;2023-10-08T03:18:41;16.90;1.00
7784;DHT22;19359;51.402;6.778;2023-10-08T03:21:11;16.80;1.00
7784;DHT22;19359;51.402;6.778;2023-10-08T03:26:16;16.90;1.00
7784;DHT22;19359;51.402;6.778;2023-10-08T03:29:00;16.80;1.00
7784;DHT22;19359;51.402;6.778;2023-10-08T03:31:31;16.90;1.00
7784;DHT22;19359;51.402;6.778;2023-10-08T03:36:46;16.80;1.00
7784;DHT22;19359;51.402;6.778;2023-10-08T03:39:15;16.40;1.00
7784;DHT22;19359;51.402;6.778;2023-10-08T03:41:44;16.50;1.00
7784;DHT22;19359;51.402;6.778;2023-10-08T03:44:23;16.60;1.00
7784;DHT22;19359;51.402;6.778;2023-10-08T03:51:52;16.60;1.00
7784;DHT22;19359;51.402;6.778;2023-10-08T03:54:19;16.60;1.00
7784;DHT22;19359;51.402;6.778;2023-10-08T03:56:55;16.60;1.00
7784;DHT22;19359;51.402;6.778;2023-10-08T03:59:23;16.90;1.00
7784;DHT22;19359;51.402;6.778;2023-10-08T04:01:57;16.50;1.00
7784;DHT22;19359;51.402;6.778;2023-10-08T04:04:27;16.60;1.00
7784;DHT22;19359;51.402;6.778;2023-10-08T04:07:15;16.60;1.00
7784;DHT22;19359;51.402;6.778;2023-10-08T04:12:42;16.60;1.00
7784;DHT22;19359;51.402;6.778;2023-10-08T04:20:12;16.50;1.00
7784;DHT22;19359;51.402;6.778;2023-10-08T04:22:58;16.40;1.00
7784;DHT22;19359;51.402;6.778;2023-10-08T04:25:26;16.40;1.00
7784;DHT22;19359;51.402;6.778;2023-10-08T04:27:54;16.40;1.00
7784;DHT22;19359;51.402;6.778;2023-10-08T04:30:24;16.50;1.00
7784;DHT22;19359;51.402;6.778;2023-10-08T04:32:58;16.40;1.00
7784;DHT22;19359;51.402;6.778;2023-10-08T04:35:33;16.50;1.00
7784;DHT22;19359;51.402;6.778;2023-10-08T04:38:03;16.40;1.00
7784;DHT22;19359;51.402;6.778;2023-10-08T04:40:30;16.30;1.00
7784;DHT22;19359;51.402;6.778;2023-10-08T04:45:36;16.50;1.00
7784;DHT22;19359;51.402;6.778;2023-10-08T04:50:36;16.40;1.00
7784;DHT22;19359;51.402;6.778;2023-10-08T04:53:03;16.20;1.00
7784;DHT22;19359;51.402;6.778;2023-10-08T04:55:34;16.40;1.00
7784;DHT22;19359;51.402;6.778;2023-10-08T04:58:00;16.30;1.00
7784;DHT22;19359;51.402;6.778;2023-10-08T05:00:30;16.20;1.00
7784;DHT22;19359;51.402;6.778;2023-10-08T05:03:16;16.40;1.00
7784;DHT22;19359;51.402;6.778;2023-10-08T05:05:47;16.10;1.00
7784;DHT22;19359;51.402;6.778;2023-10-08T05:08:33;16.40;1.00
7784;DHT22;19359;51.402;6.778;2023-10-08T05:11:13;16.20;1.00
7784;DHT22;19359;51.402;6.778;2023-10-08T05:14:02;16.20;1.00
7784;DHT22;19359;51.402;6.778;2023-10-08T05:16:31;16.20;1.00
7784;DHT22;19359;51.402;6.778;2023-10-08T05:19:15;16.10;1.00
7784;DHT22;19359;51.402;6.778;2023-10-08T05:22:01;16.10;1.00
7784;DHT22;19359;51.402;6.778;2023-10-08T05:24:44;16.10;1.00
7784;DHT22;19359;51.402;6.778;2023-10-08T05:27:30;16.20;1.00
7784;DHT22;19359;51.402;6.778;2023-10-08T05:30:21;16.20;1.00
7784;DHT22;19359;51.402;6.778;2023-10-08T05:32:54;16.20;1.00
7784;DHT22;19359;51.402;6.778;2023-10-08T05:35:38;16.20;1.00
7784;DHT22;19359;51.402;6.778;2023-10-08T05:38:22;16.10;1.00
7784;DHT22;19359;51.402;6.778;2023-10-08T05:40:49;16.10;1.00
7784;DHT22;19359;51.402;6.778;2023-10-08T05:43:42;16.00;1.00
7784;DHT22;19359;51.402;6.778;2023-10-08T05:46:21;15.90;1.00
7784;DHT22;19359;51.402;6.778;2023-10-08T05:49:12;16.10;1.00
7784;DHT22;19359;51.402;6.778;2023-10-08T05:51:52;15.90;1.00
7784;DHT22;19359;51.402;6.778;2023-10-08T05:54:37;16.00;1.00
7784;DHT22;19359;51.402;6.778;2023-10-08T05:57:23;16.00;1.00
7784;DHT22;19359;51.402;6.778;2023-10-08T06:00:05;15.90;1.00
7784;DHT22;19359;51.402;6.778;2023-10-08T06:03:07;15.90;1.00
7784;DHT22;19359;51.402;6.778;2023-10-08T06:05:36;15.90;1.00
7784;DHT22;19359;51.402;6.778;2023-10-08T06:08:29;15.90;1.00
7784;DHT22;19359;51.402;6.778;2023-10-08T06:11:16;15.80;1.00
7784;DHT22;19359;51.402;6.778;2023-10-08T06:13:54;15.90;1.00
7784;DHT22;19359;51.402;6.778;2023-10-08T06:16:26;15.90;1.00
7784;DHT22;19359;51.402;6.778;2023-10-08T06:19:07;15.90;1.00
7784;DHT22;19359;51.402;6.778;2023-10-08T06:21:35;15.90;1.00
7784;DHT22;19359;51.402;6.778;2023-10-08T06:24:02;15.90;1.00
7784;DHT22;19359;51.402;6.778;2023-10-08T06:26:36;16.00;1.00
7784;DHT22;19359;51.402;6.778;2023-10-08T06:29:09;15.90;1.00
7784;DHT22;19359;51.402;6.778;2023-10-08T06:31:45;15.90;1.00
7784;DHT22;19359;51.402;6.778;2023-10-08T06:34:17;16.00;1.00
7784;DHT22;19359;51.402;6.778;2023-10-08T06:36:47;15.90;1.00
7784;DHT22;19359;51.402;6.778;2023-10-08T06:39:15;16.00;1.00
7784;DHT22;19359;51.402;6.778;2023-10-08T06:41:46;16.00;1.00
7784;DHT22;19359;51.402;6.778;2023-10-08T06:44:12;16.00;1.00
7784;DHT22;19359;51.402;6.778;2023-10-08T06:46:41;16.00;1.00
7784;DHT22;19359;51.402;6.778;2023-10-08T06:49:08;16.00;1.00
7784;DHT22;19359;51.402;6.778;2023-10-08T06:51:39;16.00;1.00
7784;DHT22;19359;51.402;6.778;2023-10-08T06:54:07;16.30;1.00
7784;DHT22;19359;51.402;6.778;2023-10-08T06:56:36;16.00;1.00
7784;DHT22;19359;51.402;6.778;2023-10-08T06:59:05;16.00;1.00
7784;DHT22;19359;51.402;6.778;2023-10-08T07:01:35;16.00;1.00
7784;DHT22;19359;51.402;6.778;2023-10-08T07:04:05;16.00;1.00
7784;DHT22;19359;51.402;6.778;2023-10-08T07:06:36;16.00;1.00
7784;DHT22;19359;51.402;6.778;2023-10-08T07:09:06;16.30;1.00
7784;DHT22;19359;51.402;6.778;2023-10-08T07:14:12;16.20;1.00
7784;DHT22;19359;51.402;6.778;2023-10-08T07:16:40;16.20;1.00
7784;DHT22;19359;51.402;6.778;2023-10-08T07:19:07;16.30;1.00
7784;DHT22;19359;51.402;6.778;2023-10-08T07:21:44;16.30;1.00
7784;DHT22;19359;51.402;6.778;2023-10-08T07:24:11;16.30;1.00
7784;DHT22;19359;51.402;6.778;2023-10-08T07:26:41;16.20;1.00
7784;DHT22;19359;51.402;6.778;2023-10-08T07:29:14;16.20;1.00
7784;DHT22;19359;51.402;6.778;2023-10-08T07:31:43;16.20;1.00
7784;DHT22;19359;51.402;6.778;2023-10-08T07:34:15;16.30;1.00
7784;DHT22;19359;51.402;6.778;2023-10-08T07:36:52;16.40;1.00
7784;DHT22;19359;51.402;6.778;2023-10-08T07:39:20;16.30;1.00
7784;DHT22;19359;51.402;6.778;2023-10-08T07:41:52;16.40;1.00
7784;DHT22;19359;51.402;6.778;2023-10-08T07:44:22;16.60;1.00
7784;DHT22;19359;51.402;6.778;2023-10-08T07:46:49;16.60;1.00
7784;DHT22;19359;51.402;6.778;2023-10-08T07:49:17;16.60;1.00
7784;DHT22;19359;51.402;6.778;2023-10-08T07:51:44;16.50;1.00
7784;DHT22;19359;51.402;6.778;2023-10-08T07:54:17;16.60;1.00
7784;DHT22;19359;51.402;6.778;2023-10-08T07:56:45;16.70;1.00
7784;DHT22;19359;51.402;6.778;2023-10-08T07:59:13;16.70;1.00
7784;DHT22;19359;51.402;6.778;2023-10-08T08:01:43;16.80;1.00
7784;DHT22;19359;51.402;6.778;2023-10-08T08:04:10;16.90;1.00
7784;DHT22;19359;51.402;6.778;2023-10-08T08:06:47;17.00;1.00
7784;DHT22;19359;51.402;6.778;2023-10-08T08:09:15;17.20;1.00
7784;DHT22;19359;51.402;6.778;2023-10-08T08:11:45;17.40;1.00
7784;DHT22;19359;51.402;6.778;2023-10-08T08:14:13;17.50;1.00
7784;DHT22;19359;51.402;6.778;2023-10-08T08:16:44;17.60;1.00
7784;DHT22;19359;51.402;6.778;2023-10-08T08:19:14;17.70;1.00
7784;DHT22;19359;51.402;6.778;2023-10-08T08:21:42;17.50;1.00
7784;DHT22;19359;51.402;6.778;2023-10-08T08:24:11;17.50;1.00
7784;DHT22;19359;51.402;6.778;2023-10-08T08:26:39;17.60;1.00
7784;DHT22;19359;51.402;6.778;2023-10-08T08:29:10;17.50;1.00
7784;DHT22;19359;51.402;6.778;2023-10-08T08:31:40;17.50;1.00
7784;DHT22;19359;51.402;6.778;2023-10-08T08:34:13;17.30;1.00
7784;DHT22;19359;51.402;6.778;2023-10-08T08:36:46;17.30;1.00
7784;DHT22;19359;51.402;6.778;2023-10-08T08:39:15;17.30;1.00
7784;DHT22;19359;51.402;6.778;2023-10-08T08:41:58;17.40;1.00
7784;DHT22;19359;51.402;6.778;2023-10-08T08:44:27;17.40;1.00
7784;DHT22;19359;51.402;6.778;2023-10-08T08:46:57;17.40;1.00
7784;DHT22;19359;51.402;6.778;2023-10-08T08:49:26;17.60;1.00
7784;DHT22;19359;51.402;6.778;2023-10-08T08:51:55;17.70;1.00
7784;DHT22;19359;51.402;6.778;2023-10-08T08:54:26;17.80;1.00
7784;DHT22;19359;51.402;6.778;2023-10-08T08:56:56;17.80;1.00
7784;DHT22;19359;51.402;6.778;2023-10-08T08:59:23;17.80;1.00
7784;DHT22;19359;51.402;6.778;2023-10-08T09:01:51;18.00;1.00
7784;DHT22;19359;51.402;6.778;2023-10-08T09:04:28;17.90;1.00
7784;DHT22;19359;51.402;6.778;2023-10-08T09:06:56;17.90;1.00
7784;DHT22;19359;51.402;6.778;2023-10-08T09:11:52;18.00;1.00
7784;DHT22;19359;51.402;6.778;2023-10-08T09:14:21;17.90;1.00
7784;DHT22;19359;51.402;6.778;2023-10-08T09:16:48;17.80;1.00
7784;DHT22;19359;51.402;6.778;2023-10-08T09:19:16;17.50;1.00
7784;DHT22;19359;51.402;6.778;2023-10-08T09:21:59;17.50;1.00
7784;DHT22;19359;51.402;6.778;2023-10-08T09:24:26;17.40;1.00
7784;DHT22;19359;51.402;6.778;2023-10-08T09:26:54;17.10;1.00
7784;DHT22;19359;51.402;6.778;2023-10-08T09:29:23;17.20;1.00
7784;DHT22;19359;51.402;6.778;2023-10-08T09:31:53;17.10;1.00
7784;DHT22;19359;51.402;6.778;2023-10-08T09:36:50;17.00;1.00
7784;DHT22;19359;51.402;6.778;2023-10-08T09:39:19;17.10;1.00
7784;DHT22;19359;51.402;6.778;2023-10-08T09:41:50;17.10;1.00
7784;DHT22;19359;51.402;6.778;2023-10-08T09:44:18;16.90;1.00
7784;DHT22;19359;51.402;6.778;2023-10-08T09:49:15;16.90;1.00
7784;DHT22;19359;51.402;6.778;2023-10-08T09:51:44;16.80;1.00
7784;DHT22;19359;51.402;6.778;2023-10-08T09:54:17;16.80;1.00
7784;DHT22;19359;51.402;6.778;2023-10-08T09:56:45;16.80;1.00
7784;DHT22;19359;51.402;6.778;2023-10-08T09:59:13;17.00;1.00
7784;DHT22;19359;51.402;6.778;2023-10-08T10:01:42;16.90;1.00
7784;DHT22;19359;51.402;6.778;2023-10-08T10:04:10;16.80;1.00
7784;DHT22;19359;51.402;6.778;2023-10-08T10:06:37;17.10;1.00
7784;DHT22;19359;51.402;6.778;2023-10-08T10:09:05;17.00;1.00
7784;DHT22;19359;51.402;6.778;2023-10-08T10:11:47;17.10;1.00
7784;DHT22;19359;51.402;6.778;2023-10-08T10:16:43;17.40;1.00
7784;DHT22;19359;51.402;6.778;2023-10-08T10:21:44;17.30;1.00
7784;DHT22;19359;51.402;6.778;2023-10-08T10:24:22;17.40;1.00
7784;DHT22;19359;51.402;6.778;2023-10-08T10:26:50;17.50;1.00
7784;DHT22;19359;51.402;6.778;2023-10-08T10:29:22;17.50;1.00
7784;DHT22;19359;51.402;6.778;2023-10-08T10:31:53;17.50;1.00
7784;DHT22;19359;51.402;6.778;2023-10-08T10:34:21;17.50;1.00
7784;DHT22;19359;51.402;6.778;2023-10-08T10:39:21;17.70;1.00
7784;DHT22;19359;51.402;6.778;2023-10-08T10:41:56;17.60;1.00
7784;DHT22;19359;51.402;6.778;2023-10-08T10:44:27;17.30;1.00
7784;DHT22;19359;51.402;6.778;2023-10-08T10:46:55;17.50;1.00
7784;DHT22;19359;51.402;6.778;2023-10-08T10:49:47;17.50;1.00
7784;DHT22;19359;51.402;6.778;2023-10-08T10:52:20;17.40;1.00
7784;DHT22;19359;51.402;6.778;2023-10-08T10:55:01;17.20;1.00
7784;DHT22;19359;51.402;6.778;2023-10-08T10:57:47;17.00;1.00
7784;DHT22;19359;51.402;6.778;2023-10-08T11:00:21;16.80;1.00
7784;DHT22;19359;51.402;6.778;2023-10-08T11:03:03;17.00;1.00
7784;DHT22;19359;51.402;6.778;2023-10-08T11:05:37;17.00;1.00
7784;DHT22;19359;51.402;6.778;2023-10-08T11:08:13;16.90;1.00
7784;DHT22;19359;51.402;6.778;2023-10-08T11:10:42;16.90;1.00
7784;DHT22;19359;51.402;6.778;2023-10-08T11:13:16;17.00;1.00
7784;DHT22;19359;51.402;6.778;2023-10-08T11:15:45;16.90;1.00
7784;DHT22;19359;51.402;6.778;2023-10-08T11:18:16;16.90;1.00
7784;DHT22;19359;51.402;6.778;2023-10-08T11:20:43;17.00;1.00
7784;DHT22;19359;51.402;6.778;2023-10-08T11:23:11;17.00;1.00
7784;DHT22;19359;51.402;6.778;2023-10-08T11:25:54;17.00;1.00
7784;DHT22;19359;51.402;6.778;2023-10-08T11:28:23;17.00;1.00
7784;DHT22;19359;51.402;6.778;2023-10-08T11:30:53;17.10;1.00
7784;DHT22;19359;51.402;6.778;2023-10-08T11:33:20;17.40;1.00
7784;DHT22;19359;51.402;6.778;2023-10-08T11:36:05;17.70;1.00
7784;DHT22;19359;51.402;6.778;2023-10-08T11:38:39;17.90;1.00
7784;DHT22;19359;51.402;6.778;2023-10-08T11:41:13;18.10;1.00
7784;DHT22;19359;51.402;6.778;2023-10-08T11:43:48;18.00;1.00
7784;DHT22;19359;51.402;6.778;2023-10-08T11:46:22;18.20;1.00
7784;DHT22;19359;51.402;6.778;2023-10-08T11:48:51;18.20;1.00
7784;DHT22;19359;51.402;6.778;2023-10-08T11:51:18;18.20;1.00
7784;DHT22;19359;51.402;6.778;2023-10-08T11:53:49;18.20;1.00
7784;DHT22;19359;51.402;6.778;2023-10-08T11:56:17;18.30;1.00
7784;DHT22;19359;51.402;6.778;2023-10-08T11:58:49;18.10;1.00
7784;DHT22;19359;51.402;6.778;2023-10-08T12:01:17;18.00;1.00
7784;DHT22;19359;51.402;6.778;2023-10-08T12:03:44;18.20;1.00
7784;DHT22;19359;51.402;6.778;2023-10-08T12:08:42;18.40;1.00
7784;DHT22;19359;51.402;6.778;2023-10-08T12:11:14;18.70;1.00
7784;DHT22;19359;51.402;6.778;2023-10-08T12:13:41;18.80;1.00
7784;DHT22;19359;51.402;6.778;2023-10-08T12:18:45;18.80;1.00
7784;DHT22;19359;51.402;6.778;2023-10-08T12:21:15;18.80;1.00
7784;DHT22;19359;51.402;6.778;2023-10-08T12:26:12;18.60;1.00
7784;DHT22;19359;51.402;6.778;2023-10-08T12:31:11;18.60;1.00
7784;DHT22;19359;51.402;6.778;2023-10-08T12:33:38;18.70;1.00
7784;DHT22;19359;51.402;6.778;2023-10-08T12:41:04;18.80;1.00
7784;DHT22;19359;51.402;6.778;2023-10-08T12:43:38;18.50;1.00
7784;DHT22;19359;51.402;6.778;2023-10-08T12:46:08;18.50;1.00
7784;DHT22;19359;51.402;6.778;2023-10-08T12:48:42;18.30;1.00
7784;DHT22;19359;51.402;6.778;2023-10-08T12:51:13;18.10;1.00
7784;DHT22;19359;51.402;6.778;2023-10-08T12:53:40;18.10;1.00
7784;DHT22;19359;51.402;6.778;2023-10-08T12:56:16;18.10;1.00
7784;DHT22;19359;51.402;6.778;2023-10-08T12:58:47;18.00;1.00
7784;DHT22;19359;51.402;6.778;2023-10-08T13:03:44;17.90;1.00
7784;DHT22;19359;51.402;6.778;2023-10-08T13:06:14;17.90;1.00
7784;DHT22;19359;51.402;6.778;2023-10-08T13:08:47;17.80;1.00
7784;DHT22;19359;51.402;6.778;2023-10-08T13:11:14;17.90;1.00
7784;DHT22;19359;51.402;6.778;2023-10-08T13:13:47;17.80;1.00
7784;DHT22;19359;51.402;6.778;2023-10-08T13:16:14;17.80;1.00
7784;DHT22;19359;51.402;6.778;2023-10-08T13:18:41;17.70;1.00
7784;DHT22;19359;51.402;6.778;2023-10-08T13:21:10;17.70;1.00
7784;DHT22;19359;51.402;6.778;2023-10-08T13:23:37;17.70;1.00
7784;DHT22;19359;51.402;6.778;2023-10-08T13:26:05;17.80;1.00
7784;DHT22;19359;51.402;6.778;2023-10-08T13:28:33;18.00;1.00
7784;DHT22;19359;51.402;6.778;2023-10-08T13:31:00;18.00;1.00
7784;DHT22;19359;51.402;6.778;2023-10-08T13:33:35;18.20;1.00
7784;DHT22;19359;51.402;6.778;2023-10-08T13:36:05;18.00;1.00
7784;DHT22;19359;51.402;6.778;2023-10-08T13:38:35;18.30;1.00
7784;DHT22;19359;51.402;6.778;2023-10-08T13:41:03;18.60;1.00
7784;DHT22;19359;51.402;6.778;2023-10-08T13:43:32;18.70;1.00
7784;DHT22;19359;51.402;6.778;2023-10-08T13:46:03;18.70;1.00
7784;DHT22;19359;51.402;6.778;2023-10-08T13:48:32;18.50;1.00
7784;DHT22;19359;51.402;6.778;2023-10-08T13:51:01;18.50;1.00
7784;DHT22;19359;51.402;6.778;2023-10-08T13:53:30;18.50;1.00
7784;DHT22;19359;51.402;6.778;2023-10-08T13:56:00;18.40;1.00
7784;DHT22;19359;51.402;6.778;2023-10-08T13:58:27;18.50;1.00
7784;DHT22;19359;51.402;6.778;2023-10-08T14:05:50;18.30;1.00
7784;DHT22;19359;51.402;6.778;2023-10-08T14:08:17;18.30;1.00
7784;DHT22;19359;51.402;6.778;2023-10-08T14:10:45;18.20;1.00
7784;DHT22;19359;51.402;6.778;2023-10-08T14:13:15;18.20;1.00
7784;DHT22;19359;51.402;6.778;2023-10-08T14:15:45;18.10;1.00
7784;DHT22;19359;51.402;6.778;2023-10-08T14:18:15;18.30;1.00
7784;DHT22;19359;51.402;6.778;2023-10-08T14:20:44;18.20;1.00
7784;DHT22;19359;51.402;6.778;2023-10-08T14:23:13;18.80;1.00
7784;DHT22;19359;51.402;6.778;2023-10-08T14:25:43;19.00;1.00
7784;DHT22;19359;51.402;6.778;2023-10-08T14:28:10;18.90;1.00
7784;DHT22;19359;51.402;6.778;2023-10-08T14:30:48;18.80;1.00
7784;DHT22;19359;51.402;6.778;2023-10-08T14:33:20;18.60;1.00
7784;DHT22;19359;51.402;6.778;2023-10-08T14:35:52;18.40;1.00
7784;DHT22;19359;51.402;6.778;2023-10-08T14:38:37;18.30;1.00
7784;DHT22;19359;51.402;6.778;2023-10-08T14:44:06;18.30;1.00
7784;DHT22;19359;51.402;6.778;2023-10-08T14:46:34;18.50;1.00
7784;DHT22;19359;51.402;6.778;2023-10-08T14:49:03;18.40;1.00
7784;DHT22;19359;51.402;6.778;2023-10-08T14:51:38;18.50;1.00
7784;DHT22;19359;51.402;6.778;2023-10-08T14:54:07;18.50;1.00
7784;DHT22;19359;51.402;6.778;2023-10-08T14:56:35;18.40;1.00
7784;DHT22;19359;51.402;6.778;2023-10-08T14:59:02;18.40;1.00
7784;DHT22;19359;51.402;6.778;2023-10-08T15:01:29;18.40;1.00
7784;DHT22;19359;51.402;6.778;2023-10-08T15:04:00;18.50;1.00
7784;DHT22;19359;51.402;6.778;2023-10-08T15:06:30;18.60;1.00
7784;DHT22;19359;51.402;6.778;2023-10-08T15:08:58;18.40;1.00
7784;DHT22;19359;51.402;6.778;2023-10-08T15:11:25;18.50;1.00
7784;DHT22;19359;51.402;6.778;2023-10-08T15:13:52;18.50;1.00
7784;DHT22;19359;51.402;6.778;2023-10-08T15:16:20;18.40;1.00
7784;DHT22;19359;51.402;6.778;2023-10-08T15:18:48;18.40;1.00
7784;DHT22;19359;51.402;6.778;2023-10-08T15:21:17;18.40;1.00
7784;DHT22;19359;51.402;6.778;2023-10-08T15:23:44;18.50;1.00
7784;DHT22;19359;51.402;6.778;2023-10-08T15:26:12;18.50;1.00
7784;DHT22;19359;51.402;6.778;2023-10-08T15:28:39;18.70;1.00
7784;DHT22;19359;51.402;6.778;2023-10-08T15:31:06;18.50;1.00
7784;DHT22;19359;51.402;6.778;2023-10-08T15:33:33;18.40;1.00
7784;DHT22;19359;51.402;6.778;2023-10-08T15:36:00;18.40;1.00
7784;DHT22;19359;51.402;6.778;2023-10-08T15:38:28;18.60;1.00
7784;DHT22;19359;51.402;6.778;2023-10-08T15:40:56;18.80;1.00
7784;DHT22;19359;51.402;6.778;2023-10-08T15:43:25;18.80;1.00
7784;DHT22;19359;51.402;6.778;2023-10-08T15:45:53;18.80;1.00
7784;DHT22;19359;51.402;6.778;2023-10-08T15:48:21;18.70;1.00
7784;DHT22;19359;51.402;6.778;2023-10-08T15:53:15;18.50;1.00
7784;DHT22;19359;51.402;6.778;2023-10-08T15:55:43;18.30;1.00
7784;DHT22;19359;51.402;6.778;2023-10-08T15:58:10;18.20;1.00
7784;DHT22;19359;51.402;6.778;2023-10-08T16:00:36;18.00;1.00
7784;DHT22;19359;51.402;6.778;2023-10-08T16:03:03;18.10;1.00
7784;DHT22;19359;51.402;6.778;2023-10-08T16:05:32;18.20;1.00
7784;DHT22;19359;51.402;6.778;2023-10-08T16:07:59;18.20;1.00
7784;DHT22;19359;51.402;6.778;2023-10-08T16:10:27;18.10;1.00
7784;DHT22;19359;51.402;6.778;2023-10-08T16:12:55;18.10;1.00
7784;DHT22;19359;51.402;6.778;2023-10-08T16:15:22;17.90;1.00
7784;DHT22;19359;51.402;6.778;2023-10-08T16:17:49;17.80;1.00
7784;DHT22;19359;51.402;6.778;2023-10-08T16:20:16;17.90;1.00
7784;DHT22;19359;51.402;6.778;2023-10-08T16:22:44;17.60;1.00
7784;DHT22;19359;51.402;6.778;2023-10-08T16:25:13;17.50;1.00
7784;DHT22;19359;51.402;6.778;2023-10-08T16:27:42;17.40;1.00
7784;DHT22;19359;51.402;6.778;2023-10-08T16:30:15;17.30;1.00
7784;DHT22;19359;51.402;6.778;2023-10-08T16:32:43;17.20;1.00
7784;DHT22;19359;51.402;6.778;2023-10-08T16:35:09;17.10;1.00
7784;DHT22;19359;51.402;6.778;2023-10-08T16:37:37;17.00;1.00
7784;DHT22;19359;51.402;6.778;2023-10-08T16:40:06;16.90;1.00
7784;DHT22;19359;51.402;6.778;2023-10-08T16:42:33;16.70;1.00
7784;DHT22;19359;51.402;6.778;2023-10-08T16:45:01;16.60;1.00
7784;DHT22;19359;51.402;6.778;2023-10-08T16:47:31;16.50;1.00
7784;DHT22;19359;51.402;6.778;2023-10-08T16:49:58;16.40;1.00
7784;DHT22;19359;51.402;6.778;2023-10-08T16:52:25;16.20;1.00
7784;DHT22;19359;51.402;6.778;2023-10-08T16:54:52;16.40;1.00
7784;DHT22;19359;51.402;6.778;2023-10-08T16:57:19;16.30;1.00
7784;DHT22;19359;51.402;6.778;2023-10-08T16:59:46;16.20;1.00
7784;DHT22;19359;51.402;6.778;2023-10-08T17:02:13;16.10;1.00
7784;DHT22;19359;51.402;6.778;2023-10-08T17:04:42;16.10;1.00
7784;DHT22;19359;51.402;6.778;2023-10-08T17:07:09;16.20;1.00
7784;DHT22;19359;51.402;6.778;2023-10-08T17:09:36;16.00;1.00
7784;DHT22;19359;51.402;6.778;2023-10-08T17:12:05;15.90;1.00
7784;DHT22;19359;51.402;6.778;2023-10-08T17:14:31;15.90;1.00
7784;DHT22;19359;51.402;6.778;2023-10-08T17:16:58;15.80;1.00
7784;DHT22;19359;51.402;6.778;2023-10-08T17:19:27;15.90;1.00
7784;DHT22;19359;51.402;6.778;2023-10-08T17:21:55;15.80;1.00
7784;DHT22;19359;51.402;6.778;2023-10-08T17:24:22;15.60;1.00
7784;DHT22;19359;51.402;6.778;2023-10-08T17:26:49;15.50;1.00
7784;DHT22;19359;51.402;6.778;2023-10-08T17:29:16;15.50;1.00
7784;DHT22;19359;51.402;6.778;2023-10-08T17:31:43;15.30;1.00
7784;DHT22;19359;51.402;6.778;2023-10-08T17:36:39;15.20;1.00
7784;DHT22;19359;51.402;6.778;2023-10-08T17:39:07;15.10;1.00
7784;DHT22;19359;51.402;6.778;2023-10-08T17:41:42;15.00;1.00
7784;DHT22;19359;51.402;6.778;2023-10-08T17:44:11;15.00;1.00
7784;DHT22;19359;51.402;6.778;2023-10-08T17:46:39;15.00;1.00
7784;DHT22;19359;51.402;6.778;2023-10-08T17:49:06;14.90;1.00
7784;DHT22;19359;51.402;6.778;2023-10-08T17:54:02;14.90;1.00
7784;DHT22;19359;51.402;6.778;2023-10-08T17:56:31;14.90;1.00
7784;DHT22;19359;51.402;6.778;2023-10-08T17:58:58;14.70;1.00
7784;DHT22;19359;51.402;6.778;2023-10-08T18:01:25;14.80;1.00
7784;DHT22;19359;51.402;6.778;2023-10-08T18:03:52;14.70;1.00
7784;DHT22;19359;51.402;6.778;2023-10-08T18:08:47;14.60;1.00
7784;DHT22;19359;51.402;6.778;2023-10-08T18:11:15;14.70;1.00
7784;DHT22;19359;51.402;6.778;2023-10-08T18:16:13;14.70;1.00
7784;DHT22;19359;51.402;6.778;2023-10-08T18:23:41;14.60;1.00
7784;DHT22;19359;51.402;6.778;2023-10-08T18:28:37;14.50;1.00
7784;DHT22;19359;51.402;6.778;2023-10-08T18:31:07;14.50;1.00
7784;DHT22;19359;51.402;6.778;2023-10-08T18:38:32;14.30;1.00
7784;DHT22;19359;51.402;6.778;2023-10-08T18:41:00;14.20;1.00
7784;DHT22;19359;51.402;6.778;2023-10-08T18:43:28;14.20;1.00
7784;DHT22;19359;51.402;6.778;2023-10-08T18:45:55;14.20;1.00
7784;DHT22;19359;51.402;6.778;2023-10-08T18:48:23;14.20;1.00
7784;DHT22;19359;51.402;6.778;2023-10-08T18:50:51;14.20;1.00
7784;DHT22;19359;51.402;6.778;2023-10-08T19:00:44;14.00;1.00
7784;DHT22;19359;51.402;6.778;2023-10-08T19:03:10;13.90;1.00
7784;DHT22;19359;51.402;6.778;2023-10-08T19:20:30;13.80;1.00
7784;DHT22;19359;51.402;6.778;2023-10-08T19:35:14;13.70;1.00
7784;DHT22;19359;51.402;6.778;2023-10-08T19:37:42;13.50;1.00
7784;DHT22;19359;51.402;6.778;2023-10-08T19:40:13;13.80;1.00
7784;DHT22;19359;51.402;6.778;2023-10-08T19:47:41;13.40;1.00